Rialto, CA (92377)

8:25 AM PST on December 29, 2014 (GMT -0800)
Citrus Heights | Change Station
CLOSE
Current Station
Personal Weather Station
Location: Fontana, CA
Elevation: 1550 ft
Nearby Weather Stations
Active Advisory: Winter Storm Watch

Elev 1550 ft 34.15 °N, 117.46 °W | Updated 3 seconds ago

Clear
Clear
49.6 °F
Feels Like 50 °F
N
0.0
Wind Variable Wind from North
Gusts 0.0 mph

Today
High -- | Low -- °F
--% Chance of Precip.
Yesterday
High -- | Low -- °F
Precip. -- in
6:54 AM 4:48 PM
First Quarter, 60% visible
Pressure 30.16 in
Visibility 10.0 miles
Clouds Clear
Windchill 50 °F
Dew Point 33 °F
Humidity 53%
Rainfall 0.00 in
Snow Depth Not available.
UV 0 out of 12
Pollen 7.60 out of 12
Air Quality Not available.
Flu Activity Not available.
METAR KSBD 291550Z 00000KT 10SM SKC 01/M03 A3016

More Conditions Fewer Conditions

Pressure 30.16 in
Visibility 10.0 miles
Clouds Clear
Windchill 50 °F
Dew Point 33 °F
Humidity 53%
Rainfall 0.00 in
Snow Depth Not available.
UV 0 out of 12
Pollen 7.60 out of 12
Air Quality Not available.
Flu Activity Not available.
METAR KSBD 291550Z 00000KT 10SM SKC 01/M03 A3016

More Conditions Fewer Conditions

10-Day Weather Forecast

Almanac

Astronomy

Dec. 29, 2014 Rise Set
Actual Time
Civil Twilight
Nautical Twilight
Astronomical Twilight
Moon
Length of Visible Light
Length of Day
Tomorrow will be .
, % of the Moon is Illuminated

Today's Extremes

State Highs State Lows

Community

WunderPhotos

Upload Photos

1,781,631 photos uploaded!

WunderBlogs® & News

Nearby

Air Quality

  Air Quality AQ Index Pollutant
Not available.

Snow Depth

Station Depth Elevation

Earthquake Activity

City Distance Mag. Time & Date
Minimum magnitude displayed is 2.5.

Coastal Water Temperatures

Place Temperature

Nearby Weather Stations